Aviation Digital Data Service (ADDS)

Output produced by METARs form (1715 UTC 29 May 2016)
found at http://aviationweather.gov/adds/metars/
 
KBPT 291653Z 07006KT 10SM BKN025 30/23 A3012 RMK AO2 SLP197 T03000228